Jasper, Texas
Current Conditions -  °F | °C
As of 12:35 PM on Thursday 29 Jan 2015 (Local Time) from KJAS Reporting Station
Clear Clear  
Wind Chill: 72°   Ceiling: Unl
Heat Index: 72°   Visibility: 10mi
Dew Point: 54°   Wind: 9mph
Humidity: 54%   Direction: 230°SW
Pressure: 30.24"   Gusts: NA
Location:  30.92°N, 94°W
Report Text: KJAS 291835Z AUTO 23008KT 200V260 10SM CLR 22/12 A3024 RMK AO2 T02210124
Loading
Personal Weather Stations






























Interactive Weather Map New forecast layout! Learn more

10-Day Weather Forecast

Advertisements
Track Severe Weather on mobile